sensor_id;sensor_type;location;lat;lon;timestamp;temperature;humidity
69054;DHT22;56125;52.242;4.756;2022-08-19T00:04:13;23.80;63.60
69054;DHT22;56125;52.242;4.756;2022-08-19T00:09:16;23.80;63.70
69054;DHT22;56125;52.242;4.756;2022-08-19T00:14:18;23.80;63.60
69054;DHT22;56125;52.242;4.756;2022-08-19T00:19:19;23.80;63.60
69054;DHT22;56125;52.242;4.756;2022-08-19T00:24:21;23.80;63.60
69054;DHT22;56125;52.242;4.756;2022-08-19T00:29:23;23.70;63.70
69054;DHT22;56125;52.242;4.756;2022-08-19T00:34:25;23.70;63.70
69054;DHT22;56125;52.242;4.756;2022-08-19T00:39:29;23.70;63.70
69054;DHT22;56125;52.242;4.756;2022-08-19T00:44:30;23.70;63.70
69054;DHT22;56125;52.242;4.756;2022-08-19T00:49:37;23.80;63.70
69054;DHT22;56125;52.242;4.756;2022-08-19T00:54:40;23.70;63.60
69054;DHT22;56125;52.242;4.756;2022-08-19T00:59:46;23.70;63.50
69054;DHT22;56125;52.242;4.756;2022-08-19T01:04:48;23.70;63.50
69054;DHT22;56125;52.242;4.756;2022-08-19T01:09:49;23.70;63.40
69054;DHT22;56125;52.242;4.756;2022-08-19T01:14:51;23.70;63.40
69054;DHT22;56125;52.242;4.756;2022-08-19T01:19:53;23.70;63.30
69054;DHT22;56125;52.242;4.756;2022-08-19T01:24:54;23.70;63.30
69054;DHT22;56125;52.242;4.756;2022-08-19T01:29:55;23.60;63.10
69054;DHT22;56125;52.242;4.756;2022-08-19T01:34:56;23.70;63.00
69054;DHT22;56125;52.242;4.756;2022-08-19T01:39:57;23.60;63.00
69054;DHT22;56125;52.242;4.756;2022-08-19T01:44:58;23.60;63.00
69054;DHT22;56125;52.242;4.756;2022-08-19T01:49:59;23.60;63.00
69054;DHT22;56125;52.242;4.756;2022-08-19T01:55:01;23.60;63.00
69054;DHT22;56125;52.242;4.756;2022-08-19T02:00:05;23.60;63.00
69054;DHT22;56125;52.242;4.756;2022-08-19T02:05:08;23.50;62.90
69054;DHT22;56125;52.242;4.756;2022-08-19T02:10:13;23.60;62.80
69054;DHT22;56125;52.242;4.756;2022-08-19T02:15:15;23.50;62.70
69054;DHT22;56125;52.242;4.756;2022-08-19T02:20:16;23.50;62.60
69054;DHT22;56125;52.242;4.756;2022-08-19T02:25:18;23.50;62.60
69054;DHT22;56125;52.242;4.756;2022-08-19T02:30:19;23.50;62.50
69054;DHT22;56125;52.242;4.756;2022-08-19T02:35:21;23.50;62.50
69054;DHT22;56125;52.242;4.756;2022-08-19T02:40:22;23.50;62.40
69054;DHT22;56125;52.242;4.756;2022-08-19T02:45:23;23.50;62.40
69054;DHT22;56125;52.242;4.756;2022-08-19T02:50:24;23.50;62.30
69054;DHT22;56125;52.242;4.756;2022-08-19T02:55:25;23.40;62.30
69054;DHT22;56125;52.242;4.756;2022-08-19T03:00:26;23.50;62.50
69054;DHT22;56125;52.242;4.756;2022-08-19T03:05:27;23.50;62.50
69054;DHT22;56125;52.242;4.756;2022-08-19T03:10:29;23.50;62.50
69054;DHT22;56125;52.242;4.756;2022-08-19T03:15:30;23.50;62.50
69054;DHT22;56125;52.242;4.756;2022-08-19T03:20:31;23.40;62.60
69054;DHT22;56125;52.242;4.756;2022-08-19T03:25:37;23.40;62.50
69054;DHT22;56125;52.242;4.756;2022-08-19T03:30:40;23.40;62.50
69054;DHT22;56125;52.242;4.756;2022-08-19T03:35:44;23.40;62.50
69054;DHT22;56125;52.242;4.756;2022-08-19T03:40:45;23.40;62.50
69054;DHT22;56125;52.242;4.756;2022-08-19T03:45:46;23.40;63.70
69054;DHT22;56125;52.242;4.756;2022-08-19T03:50:49;23.40;62.70
69054;DHT22;56125;52.242;4.756;2022-08-19T03:55:50;23.40;62.60
69054;DHT22;56125;52.242;4.756;2022-08-19T04:00:51;23.40;62.50
69054;DHT22;56125;52.242;4.756;2022-08-19T04:05:53;23.40;62.50
69054;DHT22;56125;52.242;4.756;2022-08-19T04:10:54;23.40;62.40
69054;DHT22;56125;52.242;4.756;2022-08-19T04:15:55;23.40;62.30
69054;DHT22;56125;52.242;4.756;2022-08-19T04:20:56;23.40;62.20
69054;DHT22;56125;52.242;4.756;2022-08-19T04:25:57;23.30;62.00
69054;DHT22;56125;52.242;4.756;2022-08-19T04:30:58;23.30;63.00
69054;DHT22;56125;52.242;4.756;2022-08-19T04:35:59;23.30;61.80
69054;DHT22;56125;52.242;4.756;2022-08-19T04:41:04;23.30;61.80
69054;DHT22;56125;52.242;4.756;2022-08-19T04:46:24;23.30;61.90
69054;DHT22;56125;52.242;4.756;2022-08-19T04:51:25;23.30;62.00
69054;DHT22;56125;52.242;4.756;2022-08-19T04:56:26;23.30;62.10
69054;DHT22;56125;52.242;4.756;2022-08-19T05:01:28;23.30;62.20
69054;DHT22;56125;52.242;4.756;2022-08-19T05:06:32;23.30;62.20
69054;DHT22;56125;52.242;4.756;2022-08-19T05:11:36;23.30;62.30
69054;DHT22;56125;52.242;4.756;2022-08-19T05:16:40;23.20;62.40
69054;DHT22;56125;52.242;4.756;2022-08-19T05:21:42;23.30;62.60
69054;DHT22;56125;52.242;4.756;2022-08-19T05:27:02;23.30;62.80
69054;DHT22;56125;52.242;4.756;2022-08-19T05:32:06;23.30;62.90
69054;DHT22;56125;52.242;4.756;2022-08-19T05:37:11;23.30;63.00
69054;DHT22;56125;52.242;4.756;2022-08-19T05:42:12;23.30;63.00
69054;DHT22;56125;52.242;4.756;2022-08-19T05:47:13;23.30;63.10
69054;DHT22;56125;52.242;4.756;2022-08-19T05:52:15;23.30;63.40
69054;DHT22;56125;52.242;4.756;2022-08-19T05:57:19;23.30;63.50
69054;DHT22;56125;52.242;4.756;2022-08-19T06:02:20;23.30;63.70
69054;DHT22;56125;52.242;4.756;2022-08-19T06:07:22;23.30;63.70
69054;DHT22;56125;52.242;4.756;2022-08-19T06:12:23;23.30;63.90
69054;DHT22;56125;52.242;4.756;2022-08-19T06:17:29;23.30;64.20
69054;DHT22;56125;52.242;4.756;2022-08-19T06:22:30;23.30;65.40
69054;DHT22;56125;52.242;4.756;2022-08-19T06:27:31;23.30;64.50
69054;DHT22;56125;52.242;4.756;2022-08-19T06:32:33;23.30;64.80
69054;DHT22;56125;52.242;4.756;2022-08-19T06:37:36;23.30;64.90
69054;DHT22;56125;52.242;4.756;2022-08-19T06:42:38;23.30;65.30
69054;DHT22;56125;52.242;4.756;2022-08-19T06:47:39;23.30;65.40
69054;DHT22;56125;52.242;4.756;2022-08-19T06:52:40;23.30;65.40
69054;DHT22;56125;52.242;4.756;2022-08-19T06:57:42;23.30;65.40
69054;DHT22;56125;52.242;4.756;2022-08-19T07:02:43;23.30;65.50
69054;DHT22;56125;52.242;4.756;2022-08-19T07:07:44;23.30;65.40
69054;DHT22;56125;52.242;4.756;2022-08-19T07:12:45;23.30;65.80
69054;DHT22;56125;52.242;4.756;2022-08-19T07:17:48;23.30;66.50
69054;DHT22;56125;52.242;4.756;2022-08-19T07:22:49;23.30;67.20
69054;DHT22;56125;52.242;4.756;2022-08-19T07:27:50;23.40;68.00
69054;DHT22;56125;52.242;4.756;2022-08-19T07:32:51;23.40;68.80
69054;DHT22;56125;52.242;4.756;2022-08-19T07:37:52;23.40;69.10
69054;DHT22;56125;52.242;4.756;2022-08-19T07:42:53;23.40;68.90
69054;DHT22;56125;52.242;4.756;2022-08-19T07:47:55;23.50;69.10
69054;DHT22;56125;52.242;4.756;2022-08-19T07:52:56;23.50;68.80
69054;DHT22;56125;52.242;4.756;2022-08-19T07:57:57;23.50;69.10
69054;DHT22;56125;52.242;4.756;2022-08-19T08:02:58;23.50;68.90
69054;DHT22;56125;52.242;4.756;2022-08-19T08:07:59;23.50;68.70
69054;DHT22;56125;52.242;4.756;2022-08-19T08:13:20;23.50;70.00
69054;DHT22;56125;52.242;4.756;2022-08-19T08:18:21;23.50;70.20
69054;DHT22;56125;52.242;4.756;2022-08-19T08:23:23;23.50;70.10
69054;DHT22;56125;52.242;4.756;2022-08-19T08:28:26;23.60;69.60
69054;DHT22;56125;52.242;4.756;2022-08-19T08:33:30;23.60;69.10
69054;DHT22;56125;52.242;4.756;2022-08-19T08:38:31;23.60;69.90
69054;DHT22;56125;52.242;4.756;2022-08-19T08:43:35;23.60;69.90
69054;DHT22;56125;52.242;4.756;2022-08-19T08:53:46;23.60;69.60
69054;DHT22;56125;52.242;4.756;2022-08-19T08:58:58;23.60;69.10
69054;DHT22;56125;52.242;4.756;2022-08-19T09:04:04;23.60;69.40
69054;DHT22;56125;52.242;4.756;2022-08-19T09:09:17;23.60;69.10
69054;DHT22;56125;52.242;4.756;2022-08-19T09:14:44;23.60;69.40
69054;DHT22;56125;52.242;4.756;2022-08-19T09:20:00;23.60;69.30
69054;DHT22;56125;52.242;4.756;2022-08-19T09:25:09;23.60;68.60
69054;DHT22;56125;52.242;4.756;2022-08-19T09:30:14;23.60;68.30
69054;DHT22;56125;52.242;4.756;2022-08-19T09:35:15;23.60;68.70
69054;DHT22;56125;52.242;4.756;2022-08-19T09:40:17;23.60;68.30
69054;DHT22;56125;52.242;4.756;2022-08-19T09:45:20;23.60;68.60
69054;DHT22;56125;52.242;4.756;2022-08-19T09:50:23;23.60;68.40
69054;DHT22;56125;52.242;4.756;2022-08-19T09:55:25;23.60;68.20
69054;DHT22;56125;52.242;4.756;2022-08-19T10:00:26;23.60;68.20
69054;DHT22;56125;52.242;4.756;2022-08-19T10:05:27;23.60;68.00
69054;DHT22;56125;52.242;4.756;2022-08-19T10:10:48;23.60;68.30
69054;DHT22;56125;52.242;4.756;2022-08-19T10:15:49;23.60;68.50
69054;DHT22;56125;52.242;4.756;2022-08-19T10:20:51;23.60;68.60
69054;DHT22;56125;52.242;4.756;2022-08-19T10:25:59;23.60;68.30
69054;DHT22;56125;52.242;4.756;2022-08-19T10:31:08;23.70;68.00
69054;DHT22;56125;52.242;4.756;2022-08-19T10:36:13;23.70;67.90
69054;DHT22;56125;52.242;4.756;2022-08-19T10:41:23;23.70;68.10
69054;DHT22;56125;52.242;4.756;2022-08-19T10:46:26;23.70;68.00
69054;DHT22;56125;52.242;4.756;2022-08-19T10:51:28;23.70;68.50
69054;DHT22;56125;52.242;4.756;2022-08-19T10:56:47;23.80;68.10
69054;DHT22;56125;52.242;4.756;2022-08-19T11:01:59;23.80;68.00
69054;DHT22;56125;52.242;4.756;2022-08-19T11:07:00;23.80;67.70
69054;DHT22;56125;52.242;4.756;2022-08-19T11:12:01;23.80;67.40
69054;DHT22;56125;52.242;4.756;2022-08-19T11:17:04;23.80;67.50
69054;DHT22;56125;52.242;4.756;2022-08-19T11:22:08;23.80;67.50
69054;DHT22;56125;52.242;4.756;2022-08-19T11:27:10;23.90;67.00
69054;DHT22;56125;52.242;4.756;2022-08-19T11:32:11;23.90;66.70
69054;DHT22;56125;52.242;4.756;2022-08-19T11:37:13;23.90;66.70
69054;DHT22;56125;52.242;4.756;2022-08-19T11:42:14;23.90;66.50
69054;DHT22;56125;52.242;4.756;2022-08-19T11:47:34;23.90;66.60
69054;DHT22;56125;52.242;4.756;2022-08-19T11:52:35;23.90;66.80
69054;DHT22;56125;52.242;4.756;2022-08-19T11:57:37;23.90;67.80
69054;DHT22;56125;52.242;4.756;2022-08-19T12:02:38;23.90;69.00
69054;DHT22;56125;52.242;4.756;2022-08-19T12:07:40;23.90;68.20
69054;DHT22;56125;52.242;4.756;2022-08-19T12:12:42;24.00;68.40
69054;DHT22;56125;52.242;4.756;2022-08-19T12:17:44;24.00;68.30
69054;DHT22;56125;52.242;4.756;2022-08-19T12:22:46;24.10;68.70
69054;DHT22;56125;52.242;4.756;2022-08-19T12:27:47;24.10;69.00
69054;DHT22;56125;52.242;4.756;2022-08-19T12:32:48;24.10;68.90
69054;DHT22;56125;52.242;4.756;2022-08-19T12:37:49;24.10;68.20
69054;DHT22;56125;52.242;4.756;2022-08-19T12:42:50;24.20;67.90
69054;DHT22;56125;52.242;4.756;2022-08-19T12:47:51;24.20;67.80
69054;DHT22;56125;52.242;4.756;2022-08-19T12:52:53;24.20;67.60
69054;DHT22;56125;52.242;4.756;2022-08-19T12:57:54;24.20;67.20
69054;DHT22;56125;52.242;4.756;2022-08-19T13:02:55;24.20;66.90
69054;DHT22;56125;52.242;4.756;2022-08-19T13:07:58;24.20;67.20
69054;DHT22;56125;52.242;4.756;2022-08-19T13:13:02;24.20;67.10
69054;DHT22;56125;52.242;4.756;2022-08-19T13:18:03;24.20;67.50
69054;DHT22;56125;52.242;4.756;2022-08-19T13:23:04;24.30;67.60
69054;DHT22;56125;52.242;4.756;2022-08-19T13:28:05;24.30;67.70
69054;DHT22;56125;52.242;4.756;2022-08-19T13:33:08;24.30;67.20
69054;DHT22;56125;52.242;4.756;2022-08-19T13:38:18;24.30;67.70
69054;DHT22;56125;52.242;4.756;2022-08-19T13:43:20;24.30;67.40
69054;DHT22;56125;52.242;4.756;2022-08-19T13:48:23;24.30;67.10
69054;DHT22;56125;52.242;4.756;2022-08-19T13:53:25;24.30;67.30
69054;DHT22;56125;52.242;4.756;2022-08-19T13:58:26;24.40;67.00
69054;DHT22;56125;52.242;4.756;2022-08-19T14:03:27;24.30;67.00
69054;DHT22;56125;52.242;4.756;2022-08-19T14:08:29;24.40;67.10
69054;DHT22;56125;52.242;4.756;2022-08-19T14:13:32;24.40;67.30
69054;DHT22;56125;52.242;4.756;2022-08-19T14:18:34;24.40;67.10
69054;DHT22;56125;52.242;4.756;2022-08-19T14:23:35;24.40;67.50
69054;DHT22;56125;52.242;4.756;2022-08-19T14:28:37;24.40;67.50
69054;DHT22;56125;52.242;4.756;2022-08-19T14:33:40;24.40;67.20
69054;DHT22;56125;52.242;4.756;2022-08-19T14:38:41;24.40;67.30
69054;DHT22;56125;52.242;4.756;2022-08-19T14:43:43;24.40;68.30
69054;DHT22;56125;52.242;4.756;2022-08-19T14:48:47;24.30;67.40
69054;DHT22;56125;52.242;4.756;2022-08-19T14:53:49;24.30;67.00
69054;DHT22;56125;52.242;4.756;2022-08-19T14:58:50;24.30;67.40
69054;DHT22;56125;52.242;4.756;2022-08-19T15:03:54;24.40;67.40
69054;DHT22;56125;52.242;4.756;2022-08-19T15:08:55;24.30;67.30
69054;DHT22;56125;52.242;4.756;2022-08-19T15:13:56;24.30;67.10
69054;DHT22;56125;52.242;4.756;2022-08-19T15:18:58;24.30;67.20
69054;DHT22;56125;52.242;4.756;2022-08-19T15:24:00;24.30;67.30
69054;DHT22;56125;52.242;4.756;2022-08-19T15:29:03;24.30;67.50
69054;DHT22;56125;52.242;4.756;2022-08-19T15:34:04;24.30;68.40
69054;DHT22;56125;52.242;4.756;2022-08-19T15:39:06;24.30;67.90
69054;DHT22;56125;52.242;4.756;2022-08-19T15:44:12;24.30;67.70
69054;DHT22;56125;52.242;4.756;2022-08-19T15:49:16;24.30;67.60
69054;DHT22;56125;52.242;4.756;2022-08-19T15:54:19;24.30;67.40
69054;DHT22;56125;52.242;4.756;2022-08-19T15:59:24;24.30;67.10
69054;DHT22;56125;52.242;4.756;2022-08-19T16:04:44;24.40;67.10
69054;DHT22;56125;52.242;4.756;2022-08-19T16:10:04;24.30;67.40
69054;DHT22;56125;52.242;4.756;2022-08-19T16:15:08;24.30;67.50
69054;DHT22;56125;52.242;4.756;2022-08-19T16:20:09;24.30;67.50
69054;DHT22;56125;52.242;4.756;2022-08-19T16:25:10;24.20;67.90
69054;DHT22;56125;52.242;4.756;2022-08-19T16:30:11;24.20;67.90
69054;DHT22;56125;52.242;4.756;2022-08-19T16:35:12;24.20;67.90
69054;DHT22;56125;52.242;4.756;2022-08-19T16:40:14;24.20;67.90
69054;DHT22;56125;52.242;4.756;2022-08-19T16:45:15;24.20;68.00
69054;DHT22;56125;52.242;4.756;2022-08-19T16:50:20;24.20;68.60
69054;DHT22;56125;52.242;4.756;2022-08-19T16:55:21;24.20;68.50
69054;DHT22;56125;52.242;4.756;2022-08-19T17:00:22;24.10;68.40
69054;DHT22;56125;52.242;4.756;2022-08-19T17:05:23;24.10;68.30
69054;DHT22;56125;52.242;4.756;2022-08-19T17:10:24;24.20;68.20
69054;DHT22;56125;52.242;4.756;2022-08-19T17:15:25;24.20;67.90
69054;DHT22;56125;52.242;4.756;2022-08-19T17:20:26;24.20;67.90
69054;DHT22;56125;52.242;4.756;2022-08-19T17:25:29;24.20;67.80
69054;DHT22;56125;52.242;4.756;2022-08-19T17:30:33;24.10;68.30
69054;DHT22;56125;52.242;4.756;2022-08-19T17:35:35;24.10;68.10
69054;DHT22;56125;52.242;4.756;2022-08-19T17:40:36;24.20;68.00
69054;DHT22;56125;52.242;4.756;2022-08-19T17:45:40;24.10;68.00
69054;DHT22;56125;52.242;4.756;2022-08-19T17:50:42;24.10;68.10
69054;DHT22;56125;52.242;4.756;2022-08-19T17:55:43;24.10;68.20
69054;DHT22;56125;52.242;4.756;2022-08-19T18:00:44;24.10;68.20
69054;DHT22;56125;52.242;4.756;2022-08-19T18:05:45;24.10;68.20
69054;DHT22;56125;52.242;4.756;2022-08-19T18:10:46;24.10;68.30
69054;DHT22;56125;52.242;4.756;2022-08-19T18:15:47;24.10;68.20
69054;DHT22;56125;52.242;4.756;2022-08-19T18:20:50;24.10;68.10
69054;DHT22;56125;52.242;4.756;2022-08-19T18:25:51;24.00;68.20
69054;DHT22;56125;52.242;4.756;2022-08-19T18:30:52;24.10;68.30
69054;DHT22;56125;52.242;4.756;2022-08-19T18:35:53;24.10;68.20
69054;DHT22;56125;52.242;4.756;2022-08-19T18:40:54;24.10;68.00
69054;DHT22;56125;52.242;4.756;2022-08-19T18:46:13;24.10;68.10
69054;DHT22;56125;52.242;4.756;2022-08-19T18:51:33;24.10;68.00
69054;DHT22;56125;52.242;4.756;2022-08-19T18:56:34;24.10;68.00
69054;DHT22;56125;52.242;4.756;2022-08-19T19:01:39;24.10;68.10
69054;DHT22;56125;52.242;4.756;2022-08-19T19:06:46;24.00;68.00
69054;DHT22;56125;52.242;4.756;2022-08-19T19:11:53;24.10;68.10
69054;DHT22;56125;52.242;4.756;2022-08-19T19:16:54;24.00;68.10
69054;DHT22;56125;52.242;4.756;2022-08-19T19:21:58;24.10;68.20
69054;DHT22;56125;52.242;4.756;2022-08-19T19:27:02;24.10;68.30
69054;DHT22;56125;52.242;4.756;2022-08-19T19:32:14;24.00;68.40
69054;DHT22;56125;52.242;4.756;2022-08-19T19:37:16;24.00;68.40
69054;DHT22;56125;52.242;4.756;2022-08-19T19:42:19;24.00;68.20
69054;DHT22;56125;52.242;4.756;2022-08-19T19:47:21;24.00;68.10
69054;DHT22;56125;52.242;4.756;2022-08-19T19:52:23;24.00;68.20
69054;DHT22;56125;52.242;4.756;2022-08-19T19:57:26;23.90;68.20
69054;DHT22;56125;52.242;4.756;2022-08-19T20:02:30;23.90;68.20
69054;DHT22;56125;52.242;4.756;2022-08-19T20:07:31;23.90;68.20
69054;DHT22;56125;52.242;4.756;2022-08-19T20:12:51;23.90;68.00
69054;DHT22;56125;52.242;4.756;2022-08-19T20:17:52;23.90;67.90
69054;DHT22;56125;52.242;4.756;2022-08-19T20:22:53;23.80;67.70
69054;DHT22;56125;52.242;4.756;2022-08-19T20:27:55;23.80;67.60
69054;DHT22;56125;52.242;4.756;2022-08-19T20:32:56;23.80;68.00
69054;DHT22;56125;52.242;4.756;2022-08-19T20:37:58;23.80;67.60
69054;DHT22;56125;52.242;4.756;2022-08-19T20:43:00;23.80;67.50
69054;DHT22;56125;52.242;4.756;2022-08-19T20:48:03;23.80;67.40
69054;DHT22;56125;52.242;4.756;2022-08-19T20:53:10;23.80;67.30
69054;DHT22;56125;52.242;4.756;2022-08-19T20:58:12;23.80;67.30
69054;DHT22;56125;52.242;4.756;2022-08-19T21:03:23;23.80;67.20
69054;DHT22;56125;52.242;4.756;2022-08-19T21:08:25;23.80;66.90
69054;DHT22;56125;52.242;4.756;2022-08-19T21:13:27;23.80;66.70
69054;DHT22;56125;52.242;4.756;2022-08-19T21:18:29;23.80;66.70
69054;DHT22;56125;52.242;4.756;2022-08-19T21:23:31;23.80;66.50
69054;DHT22;56125;52.242;4.756;2022-08-19T21:28:32;23.80;66.50
69054;DHT22;56125;52.242;4.756;2022-08-19T21:33:33;23.80;66.40
69054;DHT22;56125;52.242;4.756;2022-08-19T21:38:34;23.80;66.30
69054;DHT22;56125;52.242;4.756;2022-08-19T21:43:36;23.80;66.40
69054;DHT22;56125;52.242;4.756;2022-08-19T21:48:37;23.80;66.40
69054;DHT22;56125;52.242;4.756;2022-08-19T21:53:38;23.80;66.50
69054;DHT22;56125;52.242;4.756;2022-08-19T21:58:39;23.80;66.60
69054;DHT22;56125;52.242;4.756;2022-08-19T22:03:41;23.80;67.00
69054;DHT22;56125;52.242;4.756;2022-08-19T22:08:42;23.70;67.10
69054;DHT22;56125;52.242;4.756;2022-08-19T22:13:44;23.70;67.40
69054;DHT22;56125;52.242;4.756;2022-08-19T22:18:46;23.70;67.50
69054;DHT22;56125;52.242;4.756;2022-08-19T22:23:47;23.70;68.10
69054;DHT22;56125;52.242;4.756;2022-08-19T22:28:48;23.60;68.40
69054;DHT22;56125;52.242;4.756;2022-08-19T22:33:49;23.60;68.90
69054;DHT22;56125;52.242;4.756;2022-08-19T22:38:51;23.50;69.10
69054;DHT22;56125;52.242;4.756;2022-08-19T22:43:53;23.40;69.60
69054;DHT22;56125;52.242;4.756;2022-08-19T22:48:55;23.40;69.50
69054;DHT22;56125;52.242;4.756;2022-08-19T22:53:56;23.40;69.40
69054;DHT22;56125;52.242;4.756;2022-08-19T22:58:57;23.40;69.30
69054;DHT22;56125;52.242;4.756;2022-08-19T23:03:58;23.40;69.40
69054;DHT22;56125;52.242;4.756;2022-08-19T23:09:00;23.40;69.20
69054;DHT22;56125;52.242;4.756;2022-08-19T23:14:03;23.40;68.80
69054;DHT22;56125;52.242;4.756;2022-08-19T23:19:05;23.40;68.90
69054;DHT22;56125;52.242;4.756;2022-08-19T23:24:07;23.40;68.70
69054;DHT22;56125;52.242;4.756;2022-08-19T23:29:08;23.40;68.40
69054;DHT22;56125;52.242;4.756;2022-08-19T23:34:28;23.40;68.20
69054;DHT22;56125;52.242;4.756;2022-08-19T23:39:29;23.20;68.30
69054;DHT22;56125;52.242;4.756;2022-08-19T23:44:30;23.20;68.80
69054;DHT22;56125;52.242;4.756;2022-08-19T23:49:31;23.10;69.10
69054;DHT22;56125;52.242;4.756;2022-08-19T23:54:33;23.00;68.90
69054;DHT22;56125;52.242;4.756;2022-08-19T23:59:34;23.00;68.90
